sensor_id;sensor_type;location;lat;lon;timestamp;P1;durP1;ratioP1;P2;durP2;ratioP2
17365;SDS011;8800;50.118;9.900;2023-02-17T00:00:30;74.82;;;24.95;;
17365;SDS011;8800;50.118;9.900;2023-02-17T00:02:57;80.15;;;23.65;;
17365;SDS011;8800;50.118;9.900;2023-02-17T00:05:25;72.88;;;24.05;;
17365;SDS011;8800;50.118;9.900;2023-02-17T00:07:52;76.40;;;25.17;;
17365;SDS011;8800;50.118;9.900;2023-02-17T00:10:19;74.50;;;24.55;;
17365;SDS011;8800;50.118;9.900;2023-02-17T00:12:45;65.78;;;23.88;;
17365;SDS011;8800;50.118;9.900;2023-02-17T00:15:12;63.78;;;23.92;;
17365;SDS011;8800;50.118;9.900;2023-02-17T00:17:38;85.00;;;24.60;;
17365;SDS011;8800;50.118;9.900;2023-02-17T00:20:05;68.70;;;25.23;;
17365;SDS011;8800;50.118;9.900;2023-02-17T00:22:33;79.15;;;24.30;;
17365;SDS011;8800;50.118;9.900;2023-02-17T00:25:01;78.13;;;25.70;;
17365;SDS011;8800;50.118;9.900;2023-02-17T00:27:27;71.75;;;25.88;;
17365;SDS011;8800;50.118;9.900;2023-02-17T00:29:53;79.07;;;25.40;;
17365;SDS011;8800;50.118;9.900;2023-02-17T00:32:20;78.00;;;25.00;;
17365;SDS011;8800;50.118;9.900;2023-02-17T00:34:46;73.82;;;25.40;;
17365;SDS011;8800;50.118;9.900;2023-02-17T00:37:13;69.32;;;23.95;;
17365;SDS011;8800;50.118;9.900;2023-02-17T00:39:40;84.80;;;27.67;;
17365;SDS011;8800;50.118;9.900;2023-02-17T00:42:07;73.10;;;26.38;;
17365;SDS011;8800;50.118;9.900;2023-02-17T00:44:34;77.85;;;26.52;;
17365;SDS011;8800;50.118;9.900;2023-02-17T00:47:00;76.30;;;26.17;;
17365;SDS011;8800;50.118;9.900;2023-02-17T00:49:27;75.07;;;26.02;;
17365;SDS011;8800;50.118;9.900;2023-02-17T00:51:53;72.53;;;25.98;;
17365;SDS011;8800;50.118;9.900;2023-02-17T00:54:20;70.50;;;23.38;;
17365;SDS011;8800;50.118;9.900;2023-02-17T00:56:48;67.43;;;24.00;;
17365;SDS011;8800;50.118;9.900;2023-02-17T00:59:14;75.38;;;23.73;;
17365;SDS011;8800;50.118;9.900;2023-02-17T01:01:41;69.15;;;23.33;;
17365;SDS011;8800;50.118;9.900;2023-02-17T01:04:07;65.57;;;23.35;;
17365;SDS011;8800;50.118;9.900;2023-02-17T01:06:35;69.45;;;24.33;;
17365;SDS011;8800;50.118;9.900;2023-02-17T01:09:02;63.78;;;23.48;;
17365;SDS011;8800;50.118;9.900;2023-02-17T01:11:30;61.30;;;22.67;;
17365;SDS011;8800;50.118;9.900;2023-02-17T01:13:58;69.13;;;23.58;;
17365;SDS011;8800;50.118;9.900;2023-02-17T01:16:26;61.13;;;23.17;;
17365;SDS011;8800;50.118;9.900;2023-02-17T01:18:53;65.95;;;24.05;;
17365;SDS011;8800;50.118;9.900;2023-02-17T01:21:20;74.82;;;24.88;;
17365;SDS011;8800;50.118;9.900;2023-02-17T01:23:47;73.53;;;23.58;;
17365;SDS011;8800;50.118;9.900;2023-02-17T01:26:14;73.05;;;24.52;;
17365;SDS011;8800;50.118;9.900;2023-02-17T01:28:40;70.43;;;23.70;;
17365;SDS011;8800;50.118;9.900;2023-02-17T01:31:08;73.03;;;23.83;;
17365;SDS011;8800;50.118;9.900;2023-02-17T01:33:36;73.93;;;23.88;;
17365;SDS011;8800;50.118;9.900;2023-02-17T01:36:02;67.13;;;22.90;;
17365;SDS011;8800;50.118;9.900;2023-02-17T01:38:29;62.17;;;22.20;;
17365;SDS011;8800;50.118;9.900;2023-02-17T01:40:59;64.88;;;23.00;;
17365;SDS011;8800;50.118;9.900;2023-02-17T01:43:25;65.22;;;23.55;;
17365;SDS011;8800;50.118;9.900;2023-02-17T01:45:52;59.10;;;22.60;;
17365;SDS011;8800;50.118;9.900;2023-02-17T01:48:20;60.50;;;22.63;;
17365;SDS011;8800;50.118;9.900;2023-02-17T01:50:49;66.03;;;23.15;;
17365;SDS011;8800;50.118;9.900;2023-02-17T01:53:17;61.95;;;21.38;;
17365;SDS011;8800;50.118;9.900;2023-02-17T01:55:44;63.47;;;23.73;;
17365;SDS011;8800;50.118;9.900;2023-02-17T01:58:12;64.70;;;22.15;;
17365;SDS011;8800;50.118;9.900;2023-02-17T02:00:39;61.42;;;21.90;;
17365;SDS011;8800;50.118;9.900;2023-02-17T02:03:07;59.25;;;21.85;;
17365;SDS011;8800;50.118;9.900;2023-02-17T02:05:35;55.47;;;22.45;;
17365;SDS011;8800;50.118;9.900;2023-02-17T02:08:02;56.25;;;21.38;;
17365;SDS011;8800;50.118;9.900;2023-02-17T02:10:29;56.95;;;21.30;;
17365;SDS011;8800;50.118;9.900;2023-02-17T02:12:56;51.70;;;20.48;;
17365;SDS011;8800;50.118;9.900;2023-02-17T02:15:23;53.03;;;20.50;;
17365;SDS011;8800;50.118;9.900;2023-02-17T02:17:55;54.75;;;20.52;;
17365;SDS011;8800;50.118;9.900;2023-02-17T02:20:31;52.60;;;20.42;;
17365;SDS011;8800;50.118;9.900;2023-02-17T02:23:04;53.53;;;21.15;;
17365;SDS011;8800;50.118;9.900;2023-02-17T02:28:20;53.33;;;19.98;;
17365;SDS011;8800;50.118;9.900;2023-02-17T02:31:00;51.85;;;19.70;;
17365;SDS011;8800;50.118;9.900;2023-02-17T02:33:31;55.30;;;21.85;;
17365;SDS011;8800;50.118;9.900;2023-02-17T02:36:01;57.72;;;22.55;;
17365;SDS011;8800;50.118;9.900;2023-02-17T02:38:30;54.50;;;21.33;;
17365;SDS011;8800;50.118;9.900;2023-02-17T02:41:01;61.03;;;22.13;;
17365;SDS011;8800;50.118;9.900;2023-02-17T02:43:29;58.85;;;22.85;;
17365;SDS011;8800;50.118;9.900;2023-02-17T02:45:55;60.47;;;22.50;;
17365;SDS011;8800;50.118;9.900;2023-02-17T02:48:21;61.88;;;23.10;;
17365;SDS011;8800;50.118;9.900;2023-02-17T02:50:54;59.75;;;21.83;;
17365;SDS011;8800;50.118;9.900;2023-02-17T02:56:09;60.05;;;21.27;;
17365;SDS011;8800;50.118;9.900;2023-02-17T02:58:39;57.05;;;21.92;;
17365;SDS011;8800;50.118;9.900;2023-02-17T03:01:08;66.03;;;24.13;;
17365;SDS011;8800;50.118;9.900;2023-02-17T03:03:39;55.28;;;22.27;;
17365;SDS011;8800;50.118;9.900;2023-02-17T03:06:09;60.88;;;23.60;;
17365;SDS011;8800;50.118;9.900;2023-02-17T03:08:39;55.97;;;22.45;;
17365;SDS011;8800;50.118;9.900;2023-02-17T03:11:07;56.03;;;21.88;;
17365;SDS011;8800;50.118;9.900;2023-02-17T03:13:34;60.55;;;22.08;;
17365;SDS011;8800;50.118;9.900;2023-02-17T03:16:03;55.58;;;21.30;;
17365;SDS011;8800;50.118;9.900;2023-02-17T03:18:30;53.47;;;20.52;;
17365;SDS011;8800;50.118;9.900;2023-02-17T03:20:59;55.38;;;21.45;;
17365;SDS011;8800;50.118;9.900;2023-02-17T03:23:28;61.35;;;21.58;;
17365;SDS011;8800;50.118;9.900;2023-02-17T03:25:55;52.88;;;20.65;;
17365;SDS011;8800;50.118;9.900;2023-02-17T03:28:22;54.72;;;20.48;;
17365;SDS011;8800;50.118;9.900;2023-02-17T03:30:49;57.53;;;20.83;;
17365;SDS011;8800;50.118;9.900;2023-02-17T03:33:15;50.60;;;20.33;;
17365;SDS011;8800;50.118;9.900;2023-02-17T03:35:42;52.75;;;20.98;;
17365;SDS011;8800;50.118;9.900;2023-02-17T03:38:08;57.25;;;21.23;;
17365;SDS011;8800;50.118;9.900;2023-02-17T03:40:36;53.05;;;21.15;;
17365;SDS011;8800;50.118;9.900;2023-02-17T03:43:03;58.58;;;21.80;;
17365;SDS011;8800;50.118;9.900;2023-02-17T03:45:29;49.85;;;20.23;;
17365;SDS011;8800;50.118;9.900;2023-02-17T03:47:55;57.38;;;22.90;;
17365;SDS011;8800;50.118;9.900;2023-02-17T03:50:22;55.83;;;21.75;;
17365;SDS011;8800;50.118;9.900;2023-02-17T03:52:48;55.95;;;21.08;;
17365;SDS011;8800;50.118;9.900;2023-02-17T03:55:15;56.95;;;21.13;;
17365;SDS011;8800;50.118;9.900;2023-02-17T03:57:43;56.50;;;22.27;;
17365;SDS011;8800;50.118;9.900;2023-02-17T04:00:09;55.63;;;21.23;;
17365;SDS011;8800;50.118;9.900;2023-02-17T04:02:36;57.08;;;21.27;;
17365;SDS011;8800;50.118;9.900;2023-02-17T04:05:02;54.45;;;21.50;;
17365;SDS011;8800;50.118;9.900;2023-02-17T04:07:29;51.80;;;20.67;;
17365;SDS011;8800;50.118;9.900;2023-02-17T04:09:55;51.92;;;20.02;;
17365;SDS011;8800;50.118;9.900;2023-02-17T04:12:22;55.75;;;21.52;;
17365;SDS011;8800;50.118;9.900;2023-02-17T04:14:49;59.88;;;22.45;;
17365;SDS011;8800;50.118;9.900;2023-02-17T04:17:16;59.42;;;22.30;;
17365;SDS011;8800;50.118;9.900;2023-02-17T04:19:42;64.60;;;24.63;;
17365;SDS011;8800;50.118;9.900;2023-02-17T04:22:09;61.40;;;23.02;;
17365;SDS011;8800;50.118;9.900;2023-02-17T04:24:35;59.90;;;24.00;;
17365;SDS011;8800;50.118;9.900;2023-02-17T04:27:02;63.88;;;23.70;;
17365;SDS011;8800;50.118;9.900;2023-02-17T04:29:29;56.80;;;23.38;;
17365;SDS011;8800;50.118;9.900;2023-02-17T04:31:56;66.13;;;23.80;;
17365;SDS011;8800;50.118;9.900;2023-02-17T04:34:23;57.85;;;22.27;;
17365;SDS011;8800;50.118;9.900;2023-02-17T04:36:49;56.35;;;22.90;;
17365;SDS011;8800;50.118;9.900;2023-02-17T04:39:16;57.38;;;23.42;;
17365;SDS011;8800;50.118;9.900;2023-02-17T04:41:42;55.85;;;22.17;;
17365;SDS011;8800;50.118;9.900;2023-02-17T04:44:08;58.42;;;23.60;;
17365;SDS011;8800;50.118;9.900;2023-02-17T04:46:35;61.50;;;22.98;;
17365;SDS011;8800;50.118;9.900;2023-02-17T04:49:03;61.33;;;23.67;;
17365;SDS011;8800;50.118;9.900;2023-02-17T04:51:29;56.25;;;23.13;;
17365;SDS011;8800;50.118;9.900;2023-02-17T04:53:56;62.60;;;23.98;;
17365;SDS011;8800;50.118;9.900;2023-02-17T04:56:22;62.55;;;24.13;;
17365;SDS011;8800;50.118;9.900;2023-02-17T04:58:48;70.85;;;27.95;;
17365;SDS011;8800;50.118;9.900;2023-02-17T05:01:15;77.70;;;28.60;;
17365;SDS011;8800;50.118;9.900;2023-02-17T05:03:41;67.70;;;27.08;;
17365;SDS011;8800;50.118;9.900;2023-02-17T05:06:09;70.85;;;27.92;;
17365;SDS011;8800;50.118;9.900;2023-02-17T05:08:36;77.20;;;30.10;;
17365;SDS011;8800;50.118;9.900;2023-02-17T05:11:02;64.15;;;27.10;;
17365;SDS011;8800;50.118;9.900;2023-02-17T05:13:29;59.85;;;24.75;;
17365;SDS011;8800;50.118;9.900;2023-02-17T05:15:57;64.10;;;26.75;;
17365;SDS011;8800;50.118;9.900;2023-02-17T05:18:23;70.25;;;28.95;;
17365;SDS011;8800;50.118;9.900;2023-02-17T05:20:50;65.95;;;26.92;;
17365;SDS011;8800;50.118;9.900;2023-02-17T05:23:18;72.05;;;27.80;;
17365;SDS011;8800;50.118;9.900;2023-02-17T05:25:45;73.80;;;27.73;;
17365;SDS011;8800;50.118;9.900;2023-02-17T05:28:11;70.85;;;27.50;;
17365;SDS011;8800;50.118;9.900;2023-02-17T05:30:38;59.30;;;24.38;;
17365;SDS011;8800;50.118;9.900;2023-02-17T05:33:04;53.17;;;22.23;;
17365;SDS011;8800;50.118;9.900;2023-02-17T05:35:32;36.78;;;16.00;;
17365;SDS011;8800;50.118;9.900;2023-02-17T05:37:59;43.38;;;16.33;;
17365;SDS011;8800;50.118;9.900;2023-02-17T05:40:27;41.78;;;15.73;;
17365;SDS011;8800;50.118;9.900;2023-02-17T05:42:54;38.65;;;14.95;;
17365;SDS011;8800;50.118;9.900;2023-02-17T05:45:20;40.13;;;14.88;;
17365;SDS011;8800;50.118;9.900;2023-02-17T05:47:47;42.05;;;16.55;;
17365;SDS011;8800;50.118;9.900;2023-02-17T05:50:13;48.78;;;20.63;;
17365;SDS011;8800;50.118;9.900;2023-02-17T05:52:40;46.00;;;19.15;;
17365;SDS011;8800;50.118;9.900;2023-02-17T05:55:06;101.53;;;37.30;;
17365;SDS011;8800;50.118;9.900;2023-02-17T05:57:34;99.68;;;33.90;;
17365;SDS011;8800;50.118;9.900;2023-02-17T06:00:01;77.90;;;32.13;;
17365;SDS011;8800;50.118;9.900;2023-02-17T06:02:28;64.70;;;24.85;;
17365;SDS011;8800;50.118;9.900;2023-02-17T06:04:54;58.47;;;22.77;;
17365;SDS011;8800;50.118;9.900;2023-02-17T06:07:20;45.03;;;17.15;;
17365;SDS011;8800;50.118;9.900;2023-02-17T06:09:47;44.47;;;17.92;;
17365;SDS011;8800;50.118;9.900;2023-02-17T06:12:13;49.38;;;19.85;;
17365;SDS011;8800;50.118;9.900;2023-02-17T06:14:41;47.95;;;19.20;;
17365;SDS011;8800;50.118;9.900;2023-02-17T06:17:08;45.03;;;18.70;;
17365;SDS011;8800;50.118;9.900;2023-02-17T06:19:34;52.17;;;19.65;;
17365;SDS011;8800;50.118;9.900;2023-02-17T06:22:01;58.33;;;22.63;;
17365;SDS011;8800;50.118;9.900;2023-02-17T06:24:27;45.92;;;20.67;;
17365;SDS011;8800;50.118;9.900;2023-02-17T06:26:54;45.40;;;20.00;;
17365;SDS011;8800;50.118;9.900;2023-02-17T06:29:20;44.30;;;18.80;;
17365;SDS011;8800;50.118;9.900;2023-02-17T06:31:48;46.45;;;18.67;;
17365;SDS011;8800;50.118;9.900;2023-02-17T06:34:15;43.95;;;18.75;;
17365;SDS011;8800;50.118;9.900;2023-02-17T06:36:41;45.15;;;18.40;;
17365;SDS011;8800;50.118;9.900;2023-02-17T06:39:08;38.95;;;17.00;;
17365;SDS011;8800;50.118;9.900;2023-02-17T06:41:34;41.67;;;17.58;;
17365;SDS011;8800;50.118;9.900;2023-02-17T06:44:01;57.50;;;26.02;;
17365;SDS011;8800;50.118;9.900;2023-02-17T06:46:28;46.90;;;20.52;;
17365;SDS011;8800;50.118;9.900;2023-02-17T06:48:56;42.20;;;17.10;;
17365;SDS011;8800;50.118;9.900;2023-02-17T06:51:24;36.28;;;15.60;;
17365;SDS011;8800;50.118;9.900;2023-02-17T06:53:50;41.80;;;17.10;;
17365;SDS011;8800;50.118;9.900;2023-02-17T06:56:16;41.88;;;17.30;;
17365;SDS011;8800;50.118;9.900;2023-02-17T06:58:43;45.40;;;19.65;;
17365;SDS011;8800;50.118;9.900;2023-02-17T07:01:14;45.95;;;18.10;;
17365;SDS011;8800;50.118;9.900;2023-02-17T07:03:41;39.53;;;17.35;;
17365;SDS011;8800;50.118;9.900;2023-02-17T07:06:09;32.38;;;14.60;;
17365;SDS011;8800;50.118;9.900;2023-02-17T07:08:35;35.97;;;15.77;;
17365;SDS011;8800;50.118;9.900;2023-02-17T07:11:03;35.47;;;15.98;;
17365;SDS011;8800;50.118;9.900;2023-02-17T07:13:29;36.58;;;15.77;;
17365;SDS011;8800;50.118;9.900;2023-02-17T07:15:56;42.58;;;16.25;;
17365;SDS011;8800;50.118;9.900;2023-02-17T07:18:22;43.40;;;16.58;;
17365;SDS011;8800;50.118;9.900;2023-02-17T07:20:49;47.47;;;19.80;;
17365;SDS011;8800;50.118;9.900;2023-02-17T07:23:17;49.50;;;20.80;;
17365;SDS011;8800;50.118;9.900;2023-02-17T07:25:43;36.42;;;17.42;;
17365;SDS011;8800;50.118;9.900;2023-02-17T07:28:10;28.70;;;12.50;;
17365;SDS011;8800;50.118;9.900;2023-02-17T07:30:36;82.72;;;18.98;;
17365;SDS011;8800;50.118;9.900;2023-02-17T07:33:03;33.65;;;12.40;;
17365;SDS011;8800;50.118;9.900;2023-02-17T07:35:30;23.15;;;11.45;;
17365;SDS011;8800;50.118;9.900;2023-02-17T07:37:56;23.92;;;11.50;;
17365;SDS011;8800;50.118;9.900;2023-02-17T07:40:24;24.15;;;12.15;;
17365;SDS011;8800;50.118;9.900;2023-02-17T07:42:51;26.55;;;11.15;;
17365;SDS011;8800;50.118;9.900;2023-02-17T07:45:17;23.13;;;10.98;;
17365;SDS011;8800;50.118;9.900;2023-02-17T07:47:44;20.30;;;10.23;;
17365;SDS011;8800;50.118;9.900;2023-02-17T07:50:10;21.05;;;9.48;;
17365;SDS011;8800;50.118;9.900;2023-02-17T07:52:37;16.23;;;8.45;;
17365;SDS011;8800;50.118;9.900;2023-02-17T07:55:03;33.33;;;9.02;;
17365;SDS011;8800;50.118;9.900;2023-02-17T07:57:31;48.08;;;10.02;;
17365;SDS011;8800;50.118;9.900;2023-02-17T07:59:58;14.35;;;6.45;;
17365;SDS011;8800;50.118;9.900;2023-02-17T08:02:24;11.95;;;6.45;;
17365;SDS011;8800;50.118;9.900;2023-02-17T08:04:51;11.27;;;5.88;;
17365;SDS011;8800;50.118;9.900;2023-02-17T08:07:17;11.55;;;6.20;;
17365;SDS011;8800;50.118;9.900;2023-02-17T08:09:44;12.68;;;6.20;;
17365;SDS011;8800;50.118;9.900;2023-02-17T08:12:44;9.43;;;4.90;;
17365;SDS011;8800;50.118;9.900;2023-02-17T08:15:27;9.65;;;5.10;;
17365;SDS011;8800;50.118;9.900;2023-02-17T08:17:53;9.05;;;5.40;;
17365;SDS011;8800;50.118;9.900;2023-02-17T08:20:20;9.38;;;4.53;;
17365;SDS011;8800;50.118;9.900;2023-02-17T08:22:46;10.43;;;5.15;;
17365;SDS011;8800;50.118;9.900;2023-02-17T08:25:12;7.40;;;4.45;;
17365;SDS011;8800;50.118;9.900;2023-02-17T08:27:39;7.82;;;4.57;;
17365;SDS011;8800;50.118;9.900;2023-02-17T08:30:08;24.95;;;10.20;;
17365;SDS011;8800;50.118;9.900;2023-02-17T08:32:34;12.00;;;5.80;;
17365;SDS011;8800;50.118;9.900;2023-02-17T08:35:01;11.18;;;5.60;;
17365;SDS011;8800;50.118;9.900;2023-02-17T08:37:27;9.35;;;5.15;;
17365;SDS011;8800;50.118;9.900;2023-02-17T08:39:54;7.95;;;4.00;;
17365;SDS011;8800;50.118;9.900;2023-02-17T08:42:21;8.48;;;4.45;;
17365;SDS011;8800;50.118;9.900;2023-02-17T08:44:47;6.45;;;4.03;;
17365;SDS011;8800;50.118;9.900;2023-02-17T08:47:15;8.38;;;3.78;;
17365;SDS011;8800;50.118;9.900;2023-02-17T08:49:42;6.32;;;3.30;;
17365;SDS011;8800;50.118;9.900;2023-02-17T08:52:08;5.88;;;3.30;;
17365;SDS011;8800;50.118;9.900;2023-02-17T08:54:35;6.47;;;3.45;;
17365;SDS011;8800;50.118;9.900;2023-02-17T08:57:02;6.03;;;3.70;;
17365;SDS011;8800;50.118;9.900;2023-02-17T08:59:29;27.25;;;5.32;;
17365;SDS011;8800;50.118;9.900;2023-02-17T09:01:55;9.55;;;4.32;;
17365;SDS011;8800;50.118;9.900;2023-02-17T09:04:24;10.40;;;3.75;;
17365;SDS011;8800;50.118;9.900;2023-02-17T09:06:51;7.40;;;3.85;;
17365;SDS011;8800;50.118;9.900;2023-02-17T09:09:20;8.52;;;3.70;;
17365;SDS011;8800;50.118;9.900;2023-02-17T09:11:47;4.63;;;3.15;;
17365;SDS011;8800;50.118;9.900;2023-02-17T09:14:14;6.00;;;3.30;;
17365;SDS011;8800;50.118;9.900;2023-02-17T09:16:40;5.00;;;2.92;;
17365;SDS011;8800;50.118;9.900;2023-02-17T09:19:07;5.20;;;3.10;;
17365;SDS011;8800;50.118;9.900;2023-02-17T09:21:35;5.50;;;2.88;;
17365;SDS011;8800;50.118;9.900;2023-02-17T09:24:01;4.00;;;2.75;;
17365;SDS011;8800;50.118;9.900;2023-02-17T09:26:28;6.93;;;3.10;;
17365;SDS011;8800;50.118;9.900;2023-02-17T09:28:54;5.78;;;3.03;;
17365;SDS011;8800;50.118;9.900;2023-02-17T09:31:22;8.95;;;3.53;;
17365;SDS011;8800;50.118;9.900;2023-02-17T09:33:49;7.10;;;3.28;;
17365;SDS011;8800;50.118;9.900;2023-02-17T09:36:17;6.50;;;3.53;;
17365;SDS011;8800;50.118;9.900;2023-02-17T09:38:45;6.60;;;3.70;;
17365;SDS011;8800;50.118;9.900;2023-02-17T09:41:16;6.47;;;3.60;;
17365;SDS011;8800;50.118;9.900;2023-02-17T09:43:43;7.53;;;3.80;;
17365;SDS011;8800;50.118;9.900;2023-02-17T09:46:11;9.18;;;3.47;;
17365;SDS011;8800;50.118;9.900;2023-02-17T09:48:39;6.57;;;3.60;;
17365;SDS011;8800;50.118;9.900;2023-02-17T09:51:07;7.40;;;3.97;;
17365;SDS011;8800;50.118;9.900;2023-02-17T09:53:36;6.53;;;3.63;;
17365;SDS011;8800;50.118;9.900;2023-02-17T09:56:06;8.70;;;4.15;;
17365;SDS011;8800;50.118;9.900;2023-02-17T09:58:35;10.38;;;5.18;;
17365;SDS011;8800;50.118;9.900;2023-02-17T10:01:04;8.38;;;4.55;;
17365;SDS011;8800;50.118;9.900;2023-02-17T10:03:33;7.57;;;4.30;;
17365;SDS011;8800;50.118;9.900;2023-02-17T10:06:03;11.35;;;4.32;;
17365;SDS011;8800;50.118;9.900;2023-02-17T10:08:34;5.90;;;4.00;;
17365;SDS011;8800;50.118;9.900;2023-02-17T10:11:03;6.40;;;3.58;;
17365;SDS011;8800;50.118;9.900;2023-02-17T10:13:32;7.57;;;3.75;;
17365;SDS011;8800;50.118;9.900;2023-02-17T10:16:01;7.90;;;3.92;;
17365;SDS011;8800;50.118;9.900;2023-02-17T10:18:30;7.80;;;4.15;;
17365;SDS011;8800;50.118;9.900;2023-02-17T10:20:58;7.85;;;3.83;;
17365;SDS011;8800;50.118;9.900;2023-02-17T10:23:27;6.47;;;4.07;;
17365;SDS011;8800;50.118;9.900;2023-02-17T10:26:02;6.72;;;3.92;;
17365;SDS011;8800;50.118;9.900;2023-02-17T10:28:39;7.63;;;4.22;;
17365;SDS011;8800;50.118;9.900;2023-02-17T10:31:10;5.78;;;3.42;;
17365;SDS011;8800;50.118;9.900;2023-02-17T10:36:09;5.72;;;3.58;;
17365;SDS011;8800;50.118;9.900;2023-02-17T10:38:39;5.65;;;3.70;;
17365;SDS011;8800;50.118;9.900;2023-02-17T10:41:08;8.10;;;3.92;;
17365;SDS011;8800;50.118;9.900;2023-02-17T10:43:38;5.45;;;3.47;;
17365;SDS011;8800;50.118;9.900;2023-02-17T10:46:05;5.20;;;2.90;;
17365;SDS011;8800;50.118;9.900;2023-02-17T10:48:33;6.13;;;3.47;;
17365;SDS011;8800;50.118;9.900;2023-02-17T10:51:01;3.97;;;2.80;;
17365;SDS011;8800;50.118;9.900;2023-02-17T10:53:29;4.38;;;2.70;;
17365;SDS011;8800;50.118;9.900;2023-02-17T10:55:57;4.53;;;3.00;;
17365;SDS011;8800;50.118;9.900;2023-02-17T10:58:27;4.65;;;2.40;;
17365;SDS011;8800;50.118;9.900;2023-02-17T11:00:55;4.22;;;2.70;;
17365;SDS011;8800;50.118;9.900;2023-02-17T11:03:24;5.85;;;2.42;;
17365;SDS011;8800;50.118;9.900;2023-02-17T11:05:52;4.63;;;2.75;;
17365;SDS011;8800;50.118;9.900;2023-02-17T11:08:22;6.05;;;3.42;;
17365;SDS011;8800;50.118;9.900;2023-02-17T11:10:57;3.88;;;2.47;;
17365;SDS011;8800;50.118;9.900;2023-02-17T11:13:27;5.15;;;2.85;;
17365;SDS011;8800;50.118;9.900;2023-02-17T11:15:56;4.38;;;2.92;;
17365;SDS011;8800;50.118;9.900;2023-02-17T11:18:24;4.30;;;2.60;;
17365;SDS011;8800;50.118;9.900;2023-02-17T11:20:58;4.68;;;2.97;;
17365;SDS011;8800;50.118;9.900;2023-02-17T11:23:25;4.60;;;2.58;;
17365;SDS011;8800;50.118;9.900;2023-02-17T11:25:55;4.38;;;3.03;;
17365;SDS011;8800;50.118;9.900;2023-02-17T11:28:22;4.43;;;2.80;;
17365;SDS011;8800;50.118;9.900;2023-02-17T11:30:51;4.10;;;2.55;;
17365;SDS011;8800;50.118;9.900;2023-02-17T11:33:21;4.50;;;3.00;;
17365;SDS011;8800;50.118;9.900;2023-02-17T11:35:49;5.45;;;3.40;;
17365;SDS011;8800;50.118;9.900;2023-02-17T11:38:16;4.90;;;3.17;;
17365;SDS011;8800;50.118;9.900;2023-02-17T11:40:50;4.57;;;3.13;;
17365;SDS011;8800;50.118;9.900;2023-02-17T11:43:17;5.00;;;3.20;;
17365;SDS011;8800;50.118;9.900;2023-02-17T11:45:46;5.60;;;3.45;;
17365;SDS011;8800;50.118;9.900;2023-02-17T11:48:24;6.22;;;3.25;;
17365;SDS011;8800;50.118;9.900;2023-02-17T11:50:54;5.78;;;3.20;;
17365;SDS011;8800;50.118;9.900;2023-02-17T11:53:25;5.82;;;3.70;;
17365;SDS011;8800;50.118;9.900;2023-02-17T11:56:01;6.22;;;3.35;;
17365;SDS011;8800;50.118;9.900;2023-02-17T11:58:33;6.65;;;3.75;;
17365;SDS011;8800;50.118;9.900;2023-02-17T12:01:03;4.90;;;2.65;;
17365;SDS011;8800;50.118;9.900;2023-02-17T12:06:15;3.88;;;2.65;;
17365;SDS011;8800;50.118;9.900;2023-02-17T12:08:49;5.63;;;2.72;;
17365;SDS011;8800;50.118;9.900;2023-02-17T12:11:18;5.63;;;3.53;;
17365;SDS011;8800;50.118;9.900;2023-02-17T12:13:51;4.43;;;3.30;;
17365;SDS011;8800;50.118;9.900;2023-02-17T12:16:24;4.10;;;3.22;;
17365;SDS011;8800;50.118;9.900;2023-02-17T12:18:54;4.68;;;3.10;;
17365;SDS011;8800;50.118;9.900;2023-02-17T12:21:31;7.18;;;2.90;;
17365;SDS011;8800;50.118;9.900;2023-02-17T12:24:12;4.90;;;2.78;;
17365;SDS011;8800;50.118;9.900;2023-02-17T12:26:44;4.55;;;2.78;;
17365;SDS011;8800;50.118;9.900;2023-02-17T12:29:14;4.85;;;2.90;;
17365;SDS011;8800;50.118;9.900;2023-02-17T12:31:51;4.40;;;2.78;;
17365;SDS011;8800;50.118;9.900;2023-02-17T12:34:22;4.88;;;2.90;;
17365;SDS011;8800;50.118;9.900;2023-02-17T12:36:51;3.53;;;2.20;;
17365;SDS011;8800;50.118;9.900;2023-02-17T12:39:20;4.20;;;2.90;;
17365;SDS011;8800;50.118;9.900;2023-02-17T12:41:50;5.45;;;2.65;;
17365;SDS011;8800;50.118;9.900;2023-02-17T12:44:19;3.28;;;2.30;;
17365;SDS011;8800;50.118;9.900;2023-02-17T12:46:47;4.10;;;3.00;;
17365;SDS011;8800;50.118;9.900;2023-02-17T12:49:16;5.78;;;3.25;;
17365;SDS011;8800;50.118;9.900;2023-02-17T12:51:46;3.38;;;2.50;;
17365;SDS011;8800;50.118;9.900;2023-02-17T12:54:17;3.58;;;2.40;;
17365;SDS011;8800;50.118;9.900;2023-02-17T12:56:47;4.03;;;2.38;;
17365;SDS011;8800;50.118;9.900;2023-02-17T12:59:16;4.43;;;2.72;;
17365;SDS011;8800;50.118;9.900;2023-02-17T13:01:50;5.90;;;2.70;;
17365;SDS011;8800;50.118;9.900;2023-02-17T13:04:19;3.95;;;2.42;;
17365;SDS011;8800;50.118;9.900;2023-02-17T13:06:50;5.97;;;1.92;;
17365;SDS011;8800;50.118;9.900;2023-02-17T13:09:20;5.65;;;2.97;;
17365;SDS011;8800;50.118;9.900;2023-02-17T13:11:49;3.45;;;2.17;;
17365;SDS011;8800;50.118;9.900;2023-02-17T13:14:23;3.42;;;2.08;;
17365;SDS011;8800;50.118;9.900;2023-02-17T13:16:50;3.60;;;2.38;;
17365;SDS011;8800;50.118;9.900;2023-02-17T13:19:19;4.00;;;2.20;;
17365;SDS011;8800;50.118;9.900;2023-02-17T13:21:52;4.85;;;2.72;;
17365;SDS011;8800;50.118;9.900;2023-02-17T13:24:31;4.07;;;2.00;;
17365;SDS011;8800;50.118;9.900;2023-02-17T13:27:08;4.32;;;2.55;;
17365;SDS011;8800;50.118;9.900;2023-02-17T13:29:35;8.43;;;4.07;;
17365;SDS011;8800;50.118;9.900;2023-02-17T13:32:02;4.88;;;2.42;;
17365;SDS011;8800;50.118;9.900;2023-02-17T13:34:30;3.25;;;2.10;;
17365;SDS011;8800;50.118;9.900;2023-02-17T13:36:58;6.25;;;2.95;;
17365;SDS011;8800;50.118;9.900;2023-02-17T13:39:29;4.45;;;2.45;;
17365;SDS011;8800;50.118;9.900;2023-02-17T13:41:58;4.45;;;2.40;;
17365;SDS011;8800;50.118;9.900;2023-02-17T13:44:25;5.38;;;3.10;;
17365;SDS011;8800;50.118;9.900;2023-02-17T13:46:52;4.63;;;2.70;;
17365;SDS011;8800;50.118;9.900;2023-02-17T13:49:22;4.78;;;2.95;;
17365;SDS011;8800;50.118;9.900;2023-02-17T13:51:50;6.05;;;3.17;;
17365;SDS011;8800;50.118;9.900;2023-02-17T13:54:18;8.57;;;3.60;;
17365;SDS011;8800;50.118;9.900;2023-02-17T13:56:48;4.63;;;3.05;;
17365;SDS011;8800;50.118;9.900;2023-02-17T13:59:17;6.82;;;2.90;;
17365;SDS011;8800;50.118;9.900;2023-02-17T14:01:48;6.78;;;2.92;;
17365;SDS011;8800;50.118;9.900;2023-02-17T14:04:17;4.65;;;2.80;;
17365;SDS011;8800;50.118;9.900;2023-02-17T14:06:44;4.97;;;3.00;;
17365;SDS011;8800;50.118;9.900;2023-02-17T14:09:17;4.38;;;2.95;;
17365;SDS011;8800;50.118;9.900;2023-02-17T14:11:44;3.97;;;2.90;;
17365;SDS011;8800;50.118;9.900;2023-02-17T14:14:11;3.80;;;2.30;;
17365;SDS011;8800;50.118;9.900;2023-02-17T14:16:40;4.47;;;2.42;;
17365;SDS011;8800;50.118;9.900;2023-02-17T14:19:08;4.57;;;2.30;;
17365;SDS011;8800;50.118;9.900;2023-02-17T14:21:36;4.97;;;3.10;;
17365;SDS011;8800;50.118;9.900;2023-02-17T14:24:03;5.13;;;2.70;;
17365;SDS011;8800;50.118;9.900;2023-02-17T14:26:31;4.68;;;3.03;;
17365;SDS011;8800;50.118;9.900;2023-02-17T14:28:58;4.72;;;3.05;;
17365;SDS011;8800;50.118;9.900;2023-02-17T14:31:25;3.92;;;2.03;;
17365;SDS011;8800;50.118;9.900;2023-02-17T14:33:54;4.63;;;2.30;;
17365;SDS011;8800;50.118;9.900;2023-02-17T14:36:25;5.03;;;2.38;;
17365;SDS011;8800;50.118;9.900;2023-02-17T14:38:53;5.88;;;2.78;;
17365;SDS011;8800;50.118;9.900;2023-02-17T14:41:19;3.58;;;2.28;;
17365;SDS011;8800;50.118;9.900;2023-02-17T14:43:46;2.80;;;1.55;;
17365;SDS011;8800;50.118;9.900;2023-02-17T14:46:12;3.05;;;1.75;;
17365;SDS011;8800;50.118;9.900;2023-02-17T14:48:43;4.82;;;2.13;;
17365;SDS011;8800;50.118;9.900;2023-02-17T14:51:11;3.80;;;2.03;;
17365;SDS011;8800;50.118;9.900;2023-02-17T14:53:38;3.13;;;1.95;;
17365;SDS011;8800;50.118;9.900;2023-02-17T14:56:06;3.97;;;2.33;;
17365;SDS011;8800;50.118;9.900;2023-02-17T14:58:33;2.47;;;1.50;;
17365;SDS011;8800;50.118;9.900;2023-02-17T15:00:59;3.70;;;2.03;;